Meteo Giornale » Osservazioni meteo Svizzera » Locarno

ore: 09:50 - Osservazioni Meteo Locarno
Lat. 46° 10' N Lon. 8° 53' E Alt. 600 metri s.l.m.

sereno Europe/Zurich

13 °C

Sereno

Temp. 24 Ore

4 °C

19 °C

Nord

1.8 Km/h

Dew point 6 °C

Umidità 62 %

Visibilità  10 Km

Il sole sorge alle ore 07:07

Il sole tramonta alle ore 19:50

Data e Ora Cielo e Fenomeni T °C DP °C Um. % Pres. hPa Vis. km Vento km/h
Oggi h: 09:50 sereno Sereno 13 6 62 1025 10 N 1.8
Oggi h: 08:50 sereno Sereno 10 6 76 1025 10 N 0
Oggi h: 07:50 sereno Sereno 5 3 86 1025 10 N 0
Oggi h: 06:50 sereno Sereno 4 2 86 1024 10 N 0
Oggi h: 05:50 sereno Sereno 5 3 86 1024 10 N 1.8
Oggi h: 04:50 sereno Sereno 5 3 86 1024 10 N 1.8
Oggi h: 03:50 sereno Sereno 6 4 86 1024 10 N 0
Oggi h: 02:50 sereno Sereno 7 4 81 1024 10 N 3.7
Oggi h: 01:50 sereno Sereno 7 4 81 1024 10 N 0
Oggi h: 00:50 sereno Sereno 8 5 81 1024 10 N 0
Ieri h: 23:50 sereno Sereno 8 5 81 1024 10 N 3.7
Ieri h: 22:50 sereno Sereno 10 5 71 1024 10 N 0
Ieri h: 21:50 sereno Sereno 11 6 71 1024 10 N 0
Ieri h: 20:50 sereno Sereno 12 6 66 1023 10 N 0
Ieri h: 19:50 sereno Sereno 15 6 54 1022 10 N 0
Ieri h: 18:50 sereno Sereno 18 7 48 1022 10 N 0
Ieri h: 17:50 sereno Sereno 18 5 42 1021 10 O/SO 11.1
Ieri h: 16:50 sereno Sereno 19 6 42 1022 10 O/SO 9.3
Ieri h: 15:50 sereno Sereno 18 6 45 1022 10 O/SO 11.1
Ieri h: 14:50 sereno Sereno 16 6 51 1023 10 O/SO 11.1
Ieri h: 13:50 sereno Sereno 15 6 54 1023 10 O/SO 11.1
Ieri h: 12:50 sereno Sereno 14 6 58 1024 10 O/SO 9.3
Ieri h: 11:50 sereno Sereno 14 6 58 1025 10 N 1.8